Time;durP1;ratioP1;P1;durP2;ratioP2;P2;SDS_P1;SDS_P2;PMS_P1;PMS_P2;Temp;Humidity;BMP_temperature;BMP_pressure;BME280_temperature;BME280_humidity;BME280_pressure;Samples;Min_cycle;Max_cycle;Signal;HPM_P1;HPM_P2
2023/07/06 00:01:13;;;;;;;2.67;2.00;;;22.30;60.80;;;;;;5044757;28;20229;-74
2023/07/06 00:03:40;;;;;;;3.20;2.23;;;22.20;60.60;;;;;;5045256;28;20220;-75
2023/07/06 00:06:09;;;;;;;3.53;2.40;;;22.20;60.80;;;;;;5063688;28;20577;-74
2023/07/06 00:08:38;;;;;;;2.80;2.03;;;22.20;61.00;;;;;;5044463;28;20209;-76
2023/07/06 00:11:05;;;;;;;2.50;1.93;;;22.10;61.30;;;;;;5044346;28;20206;-76
2023/07/06 00:13:32;;;;;;;4.67;2.63;;;22.10;61.70;;;;;;5040529;28;20229;-76
2023/07/06 00:16:00;;;;;;;3.87;2.00;;;22.10;61.80;;;;;;5041513;28;20710;-75
2023/07/06 00:18:28;;;;;;;4.83;2.20;;;22.20;62.30;;;;;;5040028;28;20206;-75
2023/07/06 00:20:55;;;;;;;2.30;2.10;;;22.10;62.70;;;;;;5040070;28;20210;-76
2023/07/06 00:23:23;;;;;;;2.57;2.10;;;22.20;63.50;;;;;;5043674;28;20210;-76
2023/07/06 00:25:52;;;;;;;2.43;2.10;;;22.10;64.10;;;;;;5040846;28;20256;-75
2023/07/06 00:28:24;;;;;;;3.57;2.20;;;22.10;64.40;;;;;;5046553;28;20561;-75
2023/07/06 00:30:57;;;;;;;2.70;2.03;;;22.00;64.30;;;;;;5036174;28;20197;-74
2023/07/06 00:33:26;;;;;;;4.50;2.30;;;22.00;64.90;;;;;;5051740;28;20228;-75
2023/07/06 00:35:53;;;;;;;3.17;2.20;;;22.00;64.90;;;;;;5045008;28;20639;-73
2023/07/06 00:38:21;;;;;;;3.63;2.40;;;21.90;64.90;;;;;;5053665;28;20225;-75
2023/07/06 00:40:50;;;;;;;4.13;2.20;;;21.90;65.10;;;;;;5053017;28;20299;-76
2023/07/06 00:43:21;;;;;;;2.20;2.00;;;21.90;65.10;;;;;;5053018;28;20206;-74
2023/07/06 00:45:54;;;;;;;4.43;2.23;;;21.80;65.00;;;;;;5066796;28;20201;-75
2023/07/06 00:48:26;;;;;;;4.83;2.00;;;21.80;65.40;;;;;;5052930;28;20217;-75
2023/07/06 00:50:57;;;;;;;2.90;2.03;;;21.80;65.60;;;;;;5052917;28;20237;-74
2023/07/06 00:53:29;;;;;;;3.97;2.37;;;21.70;65.60;;;;;;5051801;28;20225;-76
2023/07/06 00:56:00;;;;;;;6.27;2.07;;;21.70;65.50;;;;;;5072837;28;20193;-74
2023/07/06 00:58:34;;;;;;;3.10;2.20;;;21.60;66.30;;;;;;5072350;28;20206;-73
2023/07/06 01:01:04;;;;;;;3.27;2.20;;;21.50;66.10;;;;;;5071276;28;20247;-74
2023/07/06 01:03:32;;;;;;;4.37;2.30;;;21.60;66.50;;;;;;5042836;28;20673;-75
2023/07/06 01:06:02;;;;;;;2.20;2.03;;;21.50;66.70;;;;;;5063171;28;20197;-75
2023/07/06 01:08:30;;;;;;;2.50;2.30;;;21.50;66.90;;;;;;5038905;28;20313;-74
2023/07/06 01:10:59;;;;;;;3.00;2.10;;;21.40;66.90;;;;;;5040111;28;20206;-75
2023/07/06 01:13:29;;;;;;;3.30;2.30;;;21.40;66.80;;;;;;5040873;28;20221;-75
2023/07/06 01:16:01;;;;;;;4.10;2.60;;;21.40;66.80;;;;;;5051172;28;20348;-76
2023/07/06 01:18:35;;;;;;;2.87;1.90;;;21.30;66.60;;;;;;5054784;28;20224;-75
2023/07/06 01:21:11;;;;;;;2.73;2.00;;;21.30;66.30;;;;;;5060324;28;20218;-75
2023/07/06 01:24:07;;;;;;;2.93;2.10;;;21.30;66.20;;;;;;5048845;28;20194;-75
2023/07/06 01:26:47;;;;;;;4.57;2.27;;;21.20;66.70;;;;;;5046908;28;20218;-74
2023/07/06 01:29:49;;;;;;;4.93;2.27;;;21.20;67.00;;;;;;5040160;28;20206;-75
2023/07/06 01:32:21;;;;;;;5.77;2.20;;;21.20;67.20;;;;;;5040924;28;20206;-75
2023/07/06 01:34:57;;;;;;;3.43;2.30;;;21.10;66.60;;;;;;5038613;28;20214;-75
2023/07/06 01:37:28;;;;;;;2.63;1.80;;;21.10;66.60;;;;;;5044545;28;20340;-75
2023/07/06 01:39:57;;;;;;;5.03;2.20;;;21.10;66.60;;;;;;5021068;28;20284;-76
2023/07/06 01:42:32;;;;;;;4.50;2.40;;;21.00;66.40;;;;;;5061625;28;20211;-75
2023/07/06 01:45:04;;;;;;;3.27;2.20;;;21.00;66.70;;;;;;5047776;28;20210;-75
2023/07/06 01:47:36;;;;;;;2.20;2.00;;;21.00;66.80;;;;;;5047538;28;20202;-74
2023/07/06 01:50:06;;;;;;;2.60;2.27;;;20.90;67.00;;;;;;5052453;28;20206;-75
2023/07/06 01:52:53;;;;;;;2.67;2.10;;;20.90;67.10;;;;;;5042418;28;20240;-74
2023/07/06 01:55:26;;;;;;;3.37;2.20;;;20.80;67.80;;;;;;5044311;28;20206;-75
2023/07/06 01:58:01;;;;;;;3.30;2.50;;;20.80;67.60;;;;;;5050360;28;20240;-75
2023/07/06 02:00:30;;;;;;;3.17;1.93;;;20.70;67.70;;;;;;5056128;28;20221;-76
2023/07/06 02:03:00;;;;;;;3.50;2.57;;;20.70;67.80;;;;;;5059939;28;20267;-74
2023/07/06 02:05:28;;;;;;;2.37;2.03;;;20.60;67.70;;;;;;5045468;28;20206;-76
2023/07/06 02:07:56;;;;;;;3.73;2.30;;;20.60;67.60;;;;;;5043489;28;20202;-74
2023/07/06 02:10:23;;;;;;;2.63;2.07;;;20.60;67.80;;;;;;5049439;28;20206;-74
2023/07/06 02:12:49;;;;;;;4.50;2.70;;;20.60;68.00;;;;;;5038931;28;20199;-74
2023/07/06 02:15:18;;;;;;;2.43;2.10;;;20.50;68.00;;;;;;5036357;28;20218;-75
2023/07/06 02:17:45;;;;;;;2.43;2.23;;;20.50;68.10;;;;;;5048443;28;20620;-74
2023/07/06 02:20:16;;;;;;;4.13;2.60;;;20.40;67.90;;;;;;5049548;28;20210;-75
2023/07/06 02:22:43;;;;;;;3.30;2.30;;;20.30;68.20;;;;;;5053695;28;20198;-75
2023/07/06 02:25:10;;;;;;;3.60;2.30;;;20.30;68.50;;;;;;5040712;28;20672;-75
2023/07/06 02:27:37;;;;;;;2.37;2.17;;;20.30;68.80;;;;;;5038520;28;20600;-75
2023/07/06 02:30:04;;;;;;;2.63;2.10;;;20.20;68.80;;;;;;5040195;28;20202;-75
2023/07/06 02:32:32;;;;;;;2.40;2.07;;;20.20;68.90;;;;;;5036887;28;21961;-75
2023/07/06 02:34:59;;;;;;;2.50;2.17;;;20.20;69.10;;;;;;5038396;28;20225;-76
2023/07/06 02:37:28;;;;;;;7.13;2.37;;;20.10;69.10;;;;;;5045673;28;20198;-76
2023/07/06 02:39:58;;;;;;;3.67;2.37;;;20.10;69.40;;;;;;5055568;28;20217;-75
2023/07/06 02:42:26;;;;;;;2.10;1.90;;;20.10;69.40;;;;;;5037947;28;20202;-75
2023/07/06 02:44:53;;;;;;;2.40;2.17;;;20.10;69.40;;;;;;5035547;28;20209;-75
2023/07/06 02:47:21;;;;;;;3.23;2.03;;;20.10;70.20;;;;;;5031649;28;20214;-75
2023/07/06 02:49:48;;;;;;;3.40;2.30;;;20.00;69.30;;;;;;5061529;28;20704;-76
2023/07/06 02:52:15;;;;;;;3.10;2.20;;;20.00;69.30;;;;;;5035432;28;20215;-74
2023/07/06 02:54:43;;;;;;;4.00;2.40;;;20.00;69.40;;;;;;5037657;28;20243;-74
2023/07/06 02:57:10;;;;;;;2.90;1.80;;;20.00;69.70;;;;;;5033390;28;20619;-75
2023/07/06 02:59:37;;;;;;;3.13;2.27;;;19.90;69.70;;;;;;5055916;28;20210;-75
2023/07/06 03:02:04;;;;;;;3.57;2.10;;;20.00;70.00;;;;;;5046832;28;20267;-75
2023/07/06 03:04:32;;;;;;;2.17;1.97;;;19.90;69.90;;;;;;5048618;28;20224;-75
2023/07/06 03:06:59;;;;;;;5.10;2.37;;;19.80;70.10;;;;;;5040434;28;20467;-74
2023/07/06 03:09:26;;;;;;;3.53;2.20;;;19.80;70.10;;;;;;5039961;28;20665;-76
2023/07/06 03:11:54;;;;;;;5.60;2.33;;;19.70;70.00;;;;;;5046123;28;20244;-74
2023/07/06 03:14:25;;;;;;;2.40;2.20;;;19.70;69.80;;;;;;5044070;28;20225;-75
2023/07/06 03:16:54;;;;;;;2.60;2.30;;;19.70;69.80;;;;;;5036142;28;20222;-75
2023/07/06 03:19:22;;;;;;;3.13;1.93;;;19.60;69.70;;;;;;5046110;28;20202;-75
2023/07/06 03:21:49;;;;;;;3.07;2.07;;;19.50;69.70;;;;;;5050184;28;20205;-74
2023/07/06 03:24:18;;;;;;;2.67;2.47;;;19.50;69.80;;;;;;5050441;28;20202;-75
2023/07/06 03:26:45;;;;;;;2.70;2.40;;;19.40;69.70;;;;;;5046535;28;20222;-76
2023/07/06 03:29:13;;;;;;;5.30;3.30;;;19.40;70.00;;;;;;5053855;28;20333;-76
2023/07/06 03:31:40;;;;;;;3.63;2.30;;;19.30;70.30;;;;;;5048507;28;20518;-77
2023/07/06 03:34:07;;;;;;;2.80;2.20;;;19.20;70.30;;;;;;5046988;28;20498;-74
2023/07/06 03:36:35;;;;;;;2.60;2.20;;;19.20;70.50;;;;;;5036425;28;20660;-74
2023/07/06 03:39:02;;;;;;;2.90;2.20;;;19.10;70.70;;;;;;5050696;28;20457;-74
2023/07/06 03:41:29;;;;;;;2.63;2.20;;;19.00;70.80;;;;;;5051073;28;20209;-73
2023/07/06 03:43:58;;;;;;;3.03;2.27;;;19.00;71.00;;;;;;5047524;28;20455;-74
2023/07/06 03:46:31;;;;;;;2.77;2.40;;;19.00;71.10;;;;;;5048561;28;20749;-74
2023/07/06 03:48:58;;;;;;;3.73;2.20;;;19.00;71.40;;;;;;5048138;28;20464;-75
2023/07/06 03:51:25;;;;;;;3.07;2.40;;;19.00;71.30;;;;;;5050971;28;20609;-73
2023/07/06 03:53:51;;;;;;;2.97;2.20;;;19.10;71.40;;;;;;5049227;28;20232;-76
2023/07/06 03:56:25;;;;;;;3.03;2.07;;;19.00;71.20;;;;;;5035207;28;20197;-75
2023/07/06 03:58:51;;;;;;;2.70;2.03;;;19.10;71.40;;;;;;5043551;28;20213;-75
2023/07/06 04:01:18;;;;;;;3.40;2.60;;;19.10;71.50;;;;;;5046979;28;20317;-74
2023/07/06 04:03:46;;;;;;;2.23;2.00;;;19.10;72.20;;;;;;5045035;28;20564;-74
2023/07/06 04:06:14;;;;;;;3.80;2.33;;;19.10;71.80;;;;;;5051362;28;20460;-74
2023/07/06 04:08:42;;;;;;;3.47;2.40;;;19.10;71.80;;;;;;5048815;28;20225;-74
2023/07/06 04:11:09;;;;;;;2.80;2.30;;;19.20;72.00;;;;;;5056094;28;20282;-75
2023/07/06 04:13:36;;;;;;;3.77;2.30;;;19.20;71.90;;;;;;5053900;28;20543;-75
2023/07/06 04:16:03;;;;;;;5.90;2.50;;;19.20;71.90;;;;;;5055410;28;20420;-74
2023/07/06 04:18:31;;;;;;;2.60;2.20;;;19.20;72.00;;;;;;5050282;28;20205;-75
2023/07/06 04:21:00;;;;;;;3.33;2.73;;;19.20;71.90;;;;;;5042738;28;20233;-74
2023/07/06 04:23:27;;;;;;;2.87;2.23;;;19.20;71.90;;;;;;5038891;28;20209;-74
2023/07/06 04:25:54;;;;;;;2.80;2.07;;;19.20;71.50;;;;;;5047985;28;20508;-76
2023/07/06 04:28:21;;;;;;;2.37;2.10;;;19.10;71.40;;;;;;5046519;28;20455;-76
2023/07/06 04:30:50;;;;;;;2.87;2.20;;;19.10;71.50;;;;;;5044829;28;20202;-76
2023/07/06 04:33:19;;;;;;;5.67;1.93;;;19.10;71.80;;;;;;5035566;28;20678;-74
2023/07/06 04:35:51;;;;;;;3.20;2.30;;;19.10;71.70;;;;;;5044903;28;20225;-74
2023/07/06 04:38:20;;;;;;;2.67;2.30;;;19.10;71.80;;;;;;5041048;28;20252;-74
2023/07/06 04:40:47;;;;;;;3.23;2.47;;;19.10;71.80;;;;;;5039915;28;20215;-74
2023/07/06 04:43:14;;;;;;;4.37;2.60;;;19.10;71.90;;;;;;5047036;28;20297;-74
2023/07/06 04:45:41;;;;;;;5.10;2.77;;;19.10;72.20;;;;;;5043041;28;20218;-75
2023/07/06 04:48:10;;;;;;;3.20;2.63;;;19.10;72.20;;;;;;5052346;28;20202;-74
2023/07/06 04:50:39;;;;;;;2.70;2.50;;;19.20;72.00;;;;;;5052095;28;20574;-75
2023/07/06 04:53:07;;;;;;;3.53;2.30;;;19.20;71.90;;;;;;5051726;28;20452;-74
2023/07/06 04:55:36;;;;;;;2.50;2.30;;;19.30;72.00;;;;;;5051369;28;20320;-75
2023/07/06 04:58:05;;;;;;;4.00;3.00;;;19.30;73.50;;;;;;5050544;28;20233;-78
2023/07/06 05:00:34;;;;;;;6.37;3.00;;;19.40;72.30;;;;;;5051495;28;20523;-78
2023/07/06 05:03:06;;;;;;;4.87;3.10;;;19.50;72.30;;;;;;5056103;28;20646;-78
2023/07/06 05:05:36;;;;;;;4.90;2.80;;;19.60;72.30;;;;;;5054540;28;20202;-70
2023/07/06 05:08:03;;;;;;;3.40;2.30;;;19.60;72.70;;;;;;5046120;28;20226;-72
2023/07/06 05:10:30;;;;;;;3.47;2.20;;;19.70;71.40;;;;;;5056710;28;20205;-72
2023/07/06 05:12:58;;;;;;;8.60;3.40;;;19.70;70.70;;;;;;5048630;28;20206;-72
2023/07/06 05:15:25;;;;;;;3.97;2.60;;;19.80;71.00;;;;;;5049135;28;20221;-72
2023/07/06 05:17:54;;;;;;;3.93;2.30;;;19.90;70.40;;;;;;5041173;28;20201;-72
2023/07/06 05:20:21;;;;;;;2.97;2.37;;;19.90;70.10;;;;;;5049140;28;20204;-73
2023/07/06 05:22:49;;;;;;;2.67;2.10;;;20.00;70.20;;;;;;5049755;28;20210;-73
2023/07/06 05:25:18;;;;;;;3.37;2.30;;;20.10;70.50;;;;;;5046989;28;20209;-72
2023/07/06 05:27:46;;;;;;;2.70;2.33;;;20.10;70.30;;;;;;5041755;28;20309;-74
2023/07/06 05:30:14;;;;;;;2.70;2.10;;;20.20;71.10;;;;;;5048716;28;20203;-74
2023/07/06 05:32:41;;;;;;;3.90;2.50;;;20.30;71.00;;;;;;5054036;28;20212;-74
2023/07/06 05:35:09;;;;;;;2.90;2.30;;;20.40;70.30;;;;;;5051907;28;20894;-73
2023/07/06 05:37:36;;;;;;;2.30;2.10;;;20.40;69.70;;;;;;5048864;28;20608;-74
2023/07/06 05:40:06;;;;;;;2.47;2.27;;;20.50;69.40;;;;;;5056507;28;20205;-74
2023/07/06 05:42:33;;;;;;;2.23;2.10;;;20.60;69.60;;;;;;5037032;28;20297;-73
2023/07/06 05:45:00;;;;;;;3.77;2.40;;;20.60;70.00;;;;;;5051379;28;20210;-71
2023/07/06 05:47:28;;;;;;;2.47;2.17;;;20.70;70.10;;;;;;5051992;28;20209;-73
2023/07/06 05:49:55;;;;;;;5.50;2.50;;;20.60;70.00;;;;;;5060388;28;20221;-73
2023/07/06 05:52:24;;;;;;;4.20;2.73;;;20.70;69.70;;;;;;5052070;28;20207;-73
2023/07/06 05:54:50;;;;;;;3.07;2.07;;;20.80;69.00;;;;;;5048753;28;20226;-71
2023/07/06 05:57:19;;;;;;;2.47;2.27;;;20.80;68.80;;;;;;5066762;28;20204;-71
2023/07/06 05:59:46;;;;;;;2.73;2.00;;;21.00;68.50;;;;;;5054869;28;20550;-73
2023/07/06 06:02:17;;;;;;;2.90;2.27;;;21.00;68.20;;;;;;5059150;28;20205;-72
2023/07/06 06:04:45;;;;;;;3.93;2.77;;;21.10;67.30;;;;;;5069964;28;20578;-72
2023/07/06 06:07:13;;;;;;;4.37;2.60;;;21.10;66.00;;;;;;5057063;28;21022;-72
2023/07/06 06:09:40;;;;;;;4.70;2.30;;;21.20;65.50;;;;;;5049815;28;20235;-71
2023/07/06 06:12:17;;;;;;;3.13;2.50;;;21.30;66.20;;;;;;5055191;28;20313;-72
2023/07/06 06:14:45;;;;;;;4.70;2.40;;;21.40;65.70;;;;;;5054147;28;20218;-72
2023/07/06 06:17:12;;;;;;;3.13;2.63;;;21.50;65.60;;;;;;5036038;28;20205;-72
2023/07/06 06:19:39;;;;;;;2.63;2.33;;;21.60;65.40;;;;;;5041281;28;20206;-72
2023/07/06 06:22:09;;;;;;;3.23;2.57;;;21.70;64.70;;;;;;5045476;28;20209;-72
2023/07/06 06:24:36;;;;;;;2.73;2.47;;;21.70;64.10;;;;;;5042977;28;20203;-72
2023/07/06 06:27:04;;;;;;;3.97;2.50;;;21.80;64.00;;;;;;5042543;28;20847;-72
2023/07/06 06:29:32;;;;;;;4.30;2.40;;;21.90;63.70;;;;;;5037973;28;20210;-72
2023/07/06 06:31:59;;;;;;;3.53;2.20;;;21.90;63.00;;;;;;5047805;28;20217;-72
2023/07/06 06:34:26;;;;;;;4.27;2.50;;;22.00;63.00;;;;;;5049304;28;20216;-71
2023/07/06 06:36:53;;;;;;;5.10;2.77;;;22.00;62.50;;;;;;5047831;28;20565;-72
2023/07/06 06:39:22;;;;;;;3.57;2.30;;;22.10;63.50;;;;;;5069864;28;20224;-72
2023/07/06 06:41:49;;;;;;;3.10;2.67;;;22.20;64.50;;;;;;5069340;28;20224;-71
2023/07/06 06:44:16;;;;;;;3.40;2.37;;;22.30;64.60;;;;;;5030035;28;20689;-72
2023/07/06 06:46:45;;;;;;;2.93;2.30;;;22.40;63.70;;;;;;5033877;28;20206;-72
2023/07/06 06:49:12;;;;;;;4.77;2.60;;;22.50;63.30;;;;;;5069575;28;20311;-71
2023/07/06 06:51:38;;;;;;;4.60;2.47;;;22.60;63.30;;;;;;5070147;28;20209;-73
2023/07/06 06:54:25;;;;;;;4.30;2.50;;;22.70;61.60;;;;;;5070091;28;20240;-78
2023/07/06 06:56:53;;;;;;;3.13;2.33;;;22.70;60.40;;;;;;5045469;28;20206;-71
2023/07/06 06:59:20;;;;;;;2.97;2.53;;;22.80;60.70;;;;;;5050361;28;20198;-78
2023/07/06 07:01:48;;;;;;;5.27;2.07;;;22.80;60.40;;;;;;5056285;28;20262;-71
2023/07/06 07:04:16;;;;;;;2.10;1.90;;;22.90;60.10;;;;;;5069809;28;20201;-69
2023/07/06 07:06:43;;;;;;;5.10;2.40;;;22.90;60.00;;;;;;5067294;28;20313;-70
2023/07/06 07:09:12;;;;;;;3.87;2.70;;;23.00;60.30;;;;;;5045652;28;20221;-70
2023/07/06 07:11:40;;;;;;;3.23;2.17;;;23.20;61.00;;;;;;5029880;28;20249;-70
2023/07/06 07:14:09;;;;;;;5.50;2.60;;;23.20;59.30;;;;;;5025981;28;20562;-70
2023/07/06 07:16:37;;;;;;;2.90;2.13;;;23.30;58.80;;;;;;5049404;28;20233;-70
2023/07/06 07:19:08;;;;;;;2.20;2.00;;;23.30;58.70;;;;;;5051455;28;20790;-70
2023/07/06 07:21:35;;;;;;;5.40;2.23;;;23.50;58.40;;;;;;5053347;28;20701;-69
2023/07/06 07:24:02;;;;;;;2.80;2.00;;;23.40;58.10;;;;;;5050026;28;20301;-70
2023/07/06 07:26:30;;;;;;;2.93;2.17;;;23.40;57.50;;;;;;5049503;28;20753;-69
2023/07/06 07:28:59;;;;;;;2.10;1.90;;;23.50;57.70;;;;;;5029879;28;20222;-70
2023/07/06 07:31:29;;;;;;;2.20;1.90;;;23.50;57.80;;;;;;5048839;28;20311;-70
2023/07/06 07:33:56;;;;;;;3.30;2.10;;;23.70;58.50;;;;;;5051921;28;20206;-70
2023/07/06 07:36:23;;;;;;;4.03;2.47;;;23.80;59.00;;;;;;5052614;28;20229;-70
2023/07/06 07:38:53;;;;;;;4.47;2.47;;;23.90;58.80;;;;;;5052614;28;20205;-70
2023/07/06 07:41:20;;;;;;;4.40;2.37;;;24.10;59.40;;;;;;5069455;28;20253;-70
2023/07/06 07:43:48;;;;;;;4.17;2.50;;;24.20;59.00;;;;;;5057483;28;20202;-70
2023/07/06 07:46:19;;;;;;;3.30;2.20;;;24.30;58.30;;;;;;5053767;28;20229;-69
2023/07/06 07:48:47;;;;;;;4.63;2.40;;;24.40;58.30;;;;;;5052399;28;20285;-69
2023/07/06 07:51:16;;;;;;;3.67;2.20;;;24.50;57.90;;;;;;5056363;28;20198;-71
2023/07/06 07:53:44;;;;;;;2.60;2.10;;;24.60;58.00;;;;;;5053581;28;20218;-70
2023/07/06 07:56:13;;;;;;;4.43;2.30;;;24.70;57.70;;;;;;5053390;28;20230;-70
2023/07/06 07:58:40;;;;;;;3.50;2.20;;;24.80;57.10;;;;;;5053339;28;20209;-70
2023/07/06 08:01:09;;;;;;;5.37;2.47;;;24.80;56.50;;;;;;5067198;28;20217;-70
2023/07/06 08:03:38;;;;;;;5.90;2.20;;;24.90;56.00;;;;;;5072769;28;20259;-70
2023/07/06 08:06:09;;;;;;;4.23;2.00;;;25.00;57.10;;;;;;5073392;28;20205;-69
2023/07/06 08:08:37;;;;;;;3.20;2.27;;;25.00;55.60;;;;;;5073347;28;20240;-71
2023/07/06 08:11:08;;;;;;;2.73;2.20;;;25.10;55.70;;;;;;5071257;28;20201;-68
2023/07/06 08:13:36;;;;;;;7.10;2.70;;;25.20;55.50;;;;;;5071756;28;20227;-71
2023/07/06 08:16:04;;;;;;;3.73;2.37;;;25.30;55.40;;;;;;5073123;28;20224;-70
2023/07/06 08:18:31;;;;;;;2.97;2.20;;;25.30;56.60;;;;;;5072632;28;20267;-70
2023/07/06 08:21:01;;;;;;;2.57;2.03;;;25.50;55.70;;;;;;5060487;28;20202;-70
2023/07/06 08:23:29;;;;;;;2.60;1.90;;;25.50;53.80;;;;;;5052927;28;20201;-70
2023/07/06 08:25:57;;;;;;;3.60;2.03;;;25.60;53.60;;;;;;5052960;28;20225;-70
2023/07/06 08:28:28;;;;;;;4.33;2.10;;;25.70;53.20;;;;;;5052507;28;20707;-69
2023/07/06 08:30:56;;;;;;;3.97;2.20;;;25.70;51.60;;;;;;5064502;28;20280;-70
2023/07/06 08:33:22;;;;;;;3.87;2.10;;;25.70;50.90;;;;;;5071957;28;20252;-70
2023/07/06 08:35:50;;;;;;;2.80;2.00;;;25.70;50.50;;;;;;5062478;28;20236;-71
2023/07/06 08:38:19;;;;;;;3.27;2.33;;;25.60;51.00;;;;;;5052303;28;20216;-69
2023/07/06 08:40:51;;;;;;;2.30;1.60;;;25.60;50.80;;;;;;5062450;28;20835;-70
2023/07/06 08:43:21;;;;;;;3.10;1.97;;;25.70;51.40;;;;;;5047937;28;20205;-70
2023/07/06 08:45:52;;;;;;;2.77;2.10;;;25.70;51.30;;;;;;5045630;28;20696;-70
2023/07/06 08:48:25;;;;;;;3.13;1.93;;;25.80;50.60;;;;;;5047212;28;20695;-70
2023/07/06 08:50:54;;;;;;;2.40;2.00;;;25.70;49.30;;;;;;5052730;28;20209;-69
2023/07/06 08:53:27;;;;;;;3.27;1.90;;;25.80;50.80;;;;;;5051847;28;20198;-71
2023/07/06 08:55:57;;;;;;;3.30;2.40;;;25.90;51.60;;;;;;5052330;28;20206;-71
2023/07/06 08:58:29;;;;;;;2.30;2.00;;;26.10;51.70;;;;;;5051276;28;20225;-71
2023/07/06 09:01:03;;;;;;;5.03;2.20;;;26.20;51.10;;;;;;5047909;28;20260;-71
2023/07/06 09:03:40;;;;;;;3.93;2.10;;;26.30;49.60;;;;;;5037847;28;20209;-72
2023/07/06 09:06:12;;;;;;;2.67;1.90;;;26.40;50.70;;;;;;5034502;28;20188;-69
2023/07/06 09:08:45;;;;;;;3.93;1.97;;;26.60;50.60;;;;;;5049101;28;20650;-69
2023/07/06 09:11:12;;;;;;;3.27;1.90;;;26.70;49.90;;;;;;5040468;28;20256;-70
2023/07/06 09:13:45;;;;;;;2.37;1.90;;;26.80;50.20;;;;;;5032306;28;20208;-68
2023/07/06 09:16:12;;;;;;;2.23;2.00;;;26.90;49.20;;;;;;5038670;28;20222;-69
2023/07/06 09:18:42;;;;;;;3.97;1.97;;;26.90;47.30;;;;;;5037399;28;20199;-69
2023/07/06 09:21:09;;;;;;;3.13;1.90;;;26.90;46.50;;;;;;5052208;28;20599;-76
2023/07/06 09:23:37;;;;;;;2.90;1.90;;;26.80;46.80;;;;;;5051295;28;20692;-74
2023/07/06 09:26:08;;;;;;;4.03;2.70;;;26.90;48.10;;;;;;5052492;28;20221;-76
2023/07/06 09:28:35;;;;;;;2.47;1.90;;;26.90;46.20;;;;;;5052679;28;20193;-75
2023/07/06 09:31:10;;;;;;;2.60;1.90;;;26.90;47.10;;;;;;5058779;28;20663;-77
2023/07/06 09:33:44;;;;;;;2.47;1.80;;;26.90;45.50;;;;;;5045187;28;20648;-79
2023/07/06 09:36:15;;;;;;;3.97;2.43;;;27.00;46.90;;;;;;5050886;28;20220;-78
2023/07/06 09:38:45;;;;;;;3.27;2.13;;;26.90;44.50;;;;;;5032476;28;20195;-74
2023/07/06 09:41:37;;;;;;;2.57;2.10;;;26.80;46.00;;;;;;5032350;28;20234;-76
2023/07/06 09:44:04;;;;;;;2.87;2.03;;;26.90;47.40;;;;;;5050681;28;20203;-76
2023/07/06 09:46:34;;;;;;;3.13;2.33;;;26.80;45.40;;;;;;5051751;28;20198;-75
2023/07/06 09:49:01;;;;;;;3.07;1.90;;;26.90;46.30;;;;;;5037958;28;20200;-72
2023/07/06 09:51:36;;;;;;;5.70;2.10;;;27.00;45.70;;;;;;5046828;28;20260;-79
2023/07/06 09:54:12;;;;;;;8.83;2.43;;;27.10;45.80;;;;;;5051480;28;20584;-71
2023/07/06 09:56:40;;;;;;;2.33;2.03;;;27.30;45.80;;;;;;5046523;28;20219;-72
2023/07/06 09:59:10;;;;;;;3.07;2.03;;;27.30;45.50;;;;;;5033680;28;20208;-72
2023/07/06 10:01:44;;;;;;;3.13;2.00;;;27.50;46.00;;;;;;5055315;28;20239;-73
2023/07/06 10:04:33;;;;;;;4.87;1.97;;;27.30;42.30;;;;;;5051185;28;20214;-73
2023/07/06 10:07:11;;;;;;;2.80;2.07;;;27.30;44.80;;;;;;5030995;28;20251;-72
2023/07/06 10:09:41;;;;;;;2.33;2.13;;;27.40;47.10;;;;;;5030819;28;20550;-72
2023/07/06 10:12:18;;;;;;;3.03;2.03;;;27.40;44.20;;;;;;5032015;28;20205;-72
2023/07/06 10:14:50;;;;;;;2.40;2.17;;;27.50;42.70;;;;;;5070488;28;20202;-72
2023/07/06 10:17:32;;;;;;;3.50;2.20;;;27.50;41.70;;;;;;5060471;28;20241;-72
2023/07/06 10:20:05;;;;;;;3.00;2.10;;;27.60;43.00;;;;;;5051135;28;20689;-72
2023/07/06 10:22:39;;;;;;;3.17;2.37;;;27.60;42.30;;;;;;5070348;28;20652;-72
2023/07/06 10:25:19;;;;;;;2.70;2.07;;;27.60;42.10;;;;;;5070744;28;20256;-76
2023/07/06 10:27:53;;;;;;;4.27;2.20;;;27.50;41.80;;;;;;5042903;28;20203;-71
2023/07/06 10:30:27;;;;;;;3.67;2.13;;;27.70;45.00;;;;;;5037817;28;20196;-73
2023/07/06 10:32:58;;;;;;;2.70;2.10;;;27.90;43.40;;;;;;5063467;28;20559;-72
2023/07/06 10:35:31;;;;;;;2.80;2.50;;;28.10;42.00;;;;;;5050445;28;20249;-73
2023/07/06 10:37:58;;;;;;;3.27;2.10;;;28.20;40.90;;;;;;5055355;28;20257;-71
2023/07/06 10:40:27;;;;;;;4.17;2.10;;;28.20;39.80;;;;;;5061226;28;20212;-72
2023/07/06 10:43:21;;;;;;;4.63;2.13;;;28.20;39.60;;;;;;5049930;28;20220;-74
2023/07/06 10:45:49;;;;;;;3.07;2.30;;;28.10;39.50;;;;;;5039744;28;20204;-72
2023/07/06 10:48:27;;;;;;;3.10;1.97;;;28.10;40.20;;;;;;5049553;28;20241;-75
2023/07/06 10:51:12;;;;;;;3.10;2.17;;;28.20;39.80;;;;;;5050440;28;20189;-72
2023/07/06 10:53:40;;;;;;;3.00;2.23;;;28.20;38.20;;;;;;5047289;28;20327;-74
2023/07/06 10:56:17;;;;;;;2.80;2.20;;;28.20;39.10;;;;;;5038667;28;20221;-72
2023/07/06 10:58:54;;;;;;;3.63;2.10;;;28.10;38.90;;;;;;5049759;28;20212;-71
2023/07/06 11:01:23;;;;;;;4.73;2.57;;;28.20;40.00;;;;;;5050666;28;20797;-73
2023/07/06 11:03:51;;;;;;;2.10;1.90;;;28.40;39.90;;;;;;5036036;28;20757;-74
2023/07/06 11:06:54;;;;;;;2.83;2.20;;;28.40;39.80;;;;;;5041417;28;20216;-73
2023/07/06 11:09:21;;;;;;;2.43;1.97;;;28.50;40.00;;;;;;5058878;28;20243;-74
2023/07/06 11:12:21;;;;;;;2.73;1.90;;;28.70;41.30;;;;;;5054258;28;20216;-74
2023/07/06 11:14:55;;;;;;;3.07;2.33;;;28.80;41.40;;;;;;4995426;28;20210;-73
2023/07/06 11:17:30;;;;;;;2.63;2.00;;;29.00;41.90;;;;;;5007071;28;20226;-73
2023/07/06 11:20:11;;;;;;;4.53;2.20;;;29.20;41.50;;;;;;5035888;28;20208;-73
2023/07/06 11:22:39;;;;;;;2.27;1.77;;;29.30;41.10;;;;;;5053233;28;20192;-74
2023/07/06 11:25:20;;;;;;;2.47;2.00;;;29.40;41.10;;;;;;5041821;28;20201;-73
2023/07/06 11:27:53;;;;;;;4.33;2.60;;;29.60;41.30;;;;;;5052998;28;20209;-74
2023/07/06 11:30:31;;;;;;;2.73;2.33;;;29.70;41.20;;;;;;5054058;28;20194;-74
2023/07/06 11:33:10;;;;;;;5.07;2.50;;;29.60;38.50;;;;;;5053795;28;20204;-72
2023/07/06 11:35:50;;;;;;;3.20;2.40;;;29.60;40.00;;;;;;5041994;28;20204;-73
2023/07/06 11:38:46;;;;;;;4.77;2.43;;;29.40;37.70;;;;;;5035641;28;20228;-71
2023/07/06 11:41:24;;;;;;;4.20;2.53;;;29.40;38.30;;;;;;5034534;28;20211;-73
2023/07/06 11:44:08;;;;;;;2.93;2.20;;;29.40;40.60;;;;;;5049168;28;20193;-74
2023/07/06 11:46:47;;;;;;;4.07;2.30;;;29.40;39.80;;;;;;5045901;28;20244;-74
2023/07/06 11:49:33;;;;;;;2.80;2.07;;;29.50;40.00;;;;;;5053487;28;20636;-72
2023/07/06 11:51:59;;;;;;;3.40;2.30;;;29.50;39.00;;;;;;5053125;28;20629;-73
2023/07/06 11:54:40;;;;;;;3.87;2.50;;;29.40;38.70;;;;;;5053542;28;20632;-73
2023/07/06 11:57:24;;;;;;;3.40;2.30;;;29.40;36.90;;;;;;5052201;28;20207;-72
2023/07/06 12:00:09;;;;;;;2.50;2.30;;;29.40;35.30;;;;;;5064923;28;20215;-71
2023/07/06 12:02:37;;;;;;;2.90;2.10;;;29.40;37.40;;;;;;5062756;28;20308;-72
2023/07/06 12:05:18;;;;;;;2.60;2.40;;;29.30;37.20;;;;;;5048896;28;20204;-73
2023/07/06 12:07:45;;;;;;;2.60;2.10;;;29.30;36.50;;;;;;5052730;28;20208;-74
2023/07/06 12:10:14;;;;;;;3.03;2.03;;;29.40;37.30;;;;;;5055775;28;20549;-73
2023/07/06 12:12:41;;;;;;;2.70;2.00;;;29.40;37.70;;;;;;5061338;28;20195;-74
2023/07/06 12:15:12;;;;;;;3.90;2.07;;;29.40;36.10;;;;;;5052887;28;20270;-73
2023/07/06 12:17:41;;;;;;;3.30;2.53;;;29.30;36.10;;;;;;5052991;28;20244;-73
2023/07/06 12:20:11;;;;;;;3.67;2.50;;;29.40;37.00;;;;;;5061205;28;20213;-74
2023/07/06 12:22:51;;;;;;;2.73;2.37;;;29.40;36.10;;;;;;5052668;28;20228;-73
2023/07/06 12:25:18;;;;;;;2.63;2.27;;;29.40;35.90;;;;;;5051822;28;20197;-73
2023/07/06 12:27:45;;;;;;;4.97;2.47;;;29.50;38.60;;;;;;5048438;28;20206;-72
2023/07/06 12:30:15;;;;;;;3.03;2.50;;;29.50;37.70;;;;;;5067145;28;20266;-73
2023/07/06 12:32:46;;;;;;;3.90;2.47;;;29.60;37.20;;;;;;5067313;28;20309;-72
2023/07/06 12:35:13;;;;;;;2.87;2.40;;;29.60;35.30;;;;;;5032792;28;20197;-72
2023/07/06 12:37:42;;;;;;;3.67;2.30;;;29.60;35.40;;;;;;5036454;28;20252;-73
2023/07/06 12:40:19;;;;;;;2.20;2.00;;;29.60;36.50;;;;;;5060579;28;20224;-73
2023/07/06 12:42:46;;;;;;;3.87;2.30;;;29.80;36.70;;;;;;5050868;28;20272;-73
2023/07/06 12:45:16;;;;;;;3.07;2.60;;;30.00;36.80;;;;;;5052615;28;20206;-73
2023/07/06 12:47:44;;;;;;;3.63;2.60;;;30.10;35.30;;;;;;5052600;28;20220;-74
2023/07/06 12:50:15;;;;;;;2.73;2.10;;;30.30;37.10;;;;;;5052482;28;20674;-74
2023/07/06 12:52:43;;;;;;;3.10;2.30;;;30.30;33.90;;;;;;5052396;28;20276;-72
2023/07/06 12:55:14;;;;;;;4.83;2.53;;;30.30;35.10;;;;;;5037007;28;20520;-73
2023/07/06 12:57:41;;;;;;;2.67;2.10;;;30.50;35.90;;;;;;5044739;28;20221;-73
2023/07/06 13:00:15;;;;;;;3.00;2.43;;;30.60;35.30;;;;;;5053113;28;20291;-73
2023/07/06 13:02:44;;;;;;;5.67;2.40;;;30.60;34.90;;;;;;5048042;28;20202;-74
2023/07/06 13:05:16;;;;;;;3.60;2.43;;;30.60;34.70;;;;;;5039305;28;20203;-72